createdAt,value
2022-10-22T00:01:04.661Z,68.49
2022-10-22T00:03:38.476Z,68.31
2022-10-22T00:06:06.472Z,68.28
2022-10-22T00:08:33.817Z,67.88
2022-10-22T00:11:12.513Z,68.61
2022-10-22T00:13:40.721Z,68.86
2022-10-22T00:16:08.649Z,68.13
2022-10-22T00:18:36.403Z,68.13
2022-10-22T00:21:04.874Z,68.34
2022-10-22T00:23:32.731Z,68.60
2022-10-22T00:26:02.277Z,68.95
2022-10-22T00:28:30.551Z,69.22
2022-10-22T00:31:03.859Z,69.20
2022-10-22T00:33:35.229Z,69.73
2022-10-22T00:36:02.746Z,69.95
2022-10-22T00:38:30.173Z,69.98
2022-10-22T00:40:57.725Z,69.60
2022-10-22T00:43:25.221Z,69.55
2022-10-22T00:45:54.021Z,69.79
2022-10-22T00:48:28.286Z,69.72
2022-10-22T00:51:06.538Z,69.58
2022-10-22T00:53:39.929Z,69.59
2022-10-22T00:56:09.159Z,69.84
2022-10-22T00:58:44.080Z,69.58
2022-10-22T01:01:21.845Z,69.67
2022-10-22T01:03:53.797Z,69.32
2022-10-22T01:06:36.837Z,69.35
2022-10-22T01:09:17.044Z,69.01
2022-10-22T01:12:05.333Z,69.26
2022-10-22T01:15:30.309Z,69.66
2022-10-22T01:18:16.066Z,69.32
2022-10-22T01:21:12.053Z,69.50
2022-10-22T01:24:10.539Z,69.30
2022-10-22T01:26:59.805Z,69.34
2022-10-22T01:29:50.820Z,69.40
2022-10-22T01:32:22.226Z,69.20
2022-10-22T01:34:54.865Z,69.16
2022-10-22T01:37:26.137Z,69.51
2022-10-22T01:39:54.477Z,69.20
2022-10-22T01:42:22.240Z,69.11
2022-10-22T01:44:53.581Z,69.55
2022-10-22T01:47:50.577Z,69.48
2022-10-22T01:50:50.052Z,69.12
2022-10-22T01:53:32.959Z,68.78
2022-10-22T01:56:25.077Z,68.60
2022-10-22T01:59:08.434Z,68.72
2022-10-22T02:02:08.950Z,68.35
2022-10-22T02:04:46.365Z,68.11
2022-10-22T02:07:19.242Z,68.48
2022-10-22T02:09:47.296Z,68.16
2022-10-22T02:12:17.895Z,68.26
2022-10-22T02:14:46.870Z,68.43
2022-10-22T02:17:20.129Z,68.39
2022-10-22T02:20:19.686Z,67.94
2022-10-22T02:22:47.691Z,68.35
2022-10-22T02:25:15.210Z,68.45
2022-10-22T02:28:02.900Z,68.04
2022-10-22T02:30:33.123Z,68.22
2022-10-22T02:33:20.765Z,68.30
2022-10-22T02:35:49.848Z,68.31
2022-10-22T02:38:19.082Z,68.57
2022-10-22T02:40:47.040Z,68.60
2022-10-22T02:43:15.153Z,68.64
2022-10-22T02:45:42.353Z,68.70
2022-10-22T02:48:09.851Z,68.64
2022-10-22T02:50:37.224Z,68.35
2022-10-22T02:53:05.003Z,68.31
2022-10-22T02:55:32.256Z,68.56
2022-10-22T02:57:59.760Z,68.52
2022-10-22T03:00:28.374Z,68.45
2022-10-22T03:02:56.089Z,68.43
2022-10-22T03:05:23.296Z,67.98
2022-10-22T03:07:50.784Z,67.92
2022-10-22T03:10:18.046Z,68.49
2022-10-22T03:12:45.474Z,68.12
2022-10-22T03:15:12.724Z,68.18
2022-10-22T03:17:40.489Z,68.55
2022-10-22T03:20:08.718Z,68.56
2022-10-22T03:22:44.296Z,68.34
2022-10-22T03:25:36.568Z,68.53
2022-10-22T03:28:06.893Z,68.30
2022-10-22T03:30:34.184Z,68.22
2022-10-22T03:33:02.096Z,68.80
2022-10-22T03:35:29.585Z,68.56
2022-10-22T03:38:00.770Z,68.25
2022-10-22T03:40:28.206Z,68.32
2022-10-22T03:43:14.849Z,68.75
2022-10-22T03:45:42.013Z,68.40
2022-10-22T03:48:09.483Z,69.28
2022-10-22T03:50:36.712Z,68.46
2022-10-22T03:53:04.895Z,69.00
2022-10-22T03:55:32.119Z,69.14
2022-10-22T03:57:59.575Z,69.19
2022-10-22T04:00:27.106Z,69.27
2022-10-22T04:02:57.343Z,69.04
2022-10-22T04:05:24.636Z,69.14
2022-10-22T04:07:52.353Z,68.62
2022-10-22T04:10:19.623Z,69.02
2022-10-22T04:12:50.326Z,68.69
2022-10-22T04:15:17.680Z,68.49
2022-10-22T04:17:45.166Z,69.36
2022-10-22T04:20:12.780Z,68.75
2022-10-22T04:22:41.263Z,69.25
2022-10-22T04:25:10.762Z,68.86
2022-10-22T04:27:43.767Z,68.77
2022-10-22T04:30:26.072Z,69.33
2022-10-22T04:33:05.405Z,69.20
2022-10-22T04:35:38.825Z,69.36
2022-10-22T04:38:06.278Z,69.04
2022-10-22T04:40:33.827Z,68.68
2022-10-22T04:43:01.434Z,69.37
2022-10-22T04:45:28.684Z,69.26
2022-10-22T04:47:56.817Z,69.34
2022-10-22T04:50:42.816Z,69.51
2022-10-22T04:53:10.353Z,69.73
2022-10-22T04:55:37.564Z,69.23
2022-10-22T04:58:05.297Z,69.20
2022-10-22T05:00:32.800Z,69.65
2022-10-22T05:03:00.674Z,69.67
2022-10-22T05:05:28.874Z,69.66
2022-10-22T05:08:13.854Z,68.93
2022-10-22T05:10:42.771Z,69.50
2022-10-22T05:13:16.171Z,69.64
2022-10-22T05:16:14.657Z,69.33
2022-10-22T05:18:46.935Z,69.70
2022-10-22T05:21:18.170Z,69.75
2022-10-22T05:23:48.379Z,69.35
2022-10-22T05:26:18.854Z,69.23
2022-10-22T05:28:48.527Z,69.23
2022-10-22T05:31:17.871Z,68.77
2022-10-22T05:33:46.122Z,68.50
2022-10-22T05:36:16.295Z,68.92
2022-10-22T05:38:44.033Z,68.83
2022-10-22T05:41:17.188Z,68.31
2022-10-22T05:43:45.329Z,68.24
2022-10-22T05:46:22.014Z,68.35
2022-10-22T05:48:59.269Z,68.24
2022-10-22T05:51:30.978Z,67.16
2022-10-22T05:54:01.210Z,64.77
2022-10-22T05:56:30.090Z,60.55
2022-10-22T05:58:57.874Z,57.43
2022-10-22T06:01:28.161Z,56.08
2022-10-22T06:03:58.588Z,55.01
2022-10-22T06:06:46.808Z,52.06
2022-10-22T06:09:22.456Z,51.52
2022-10-22T06:11:50.997Z,49.94
2022-10-22T06:14:20.337Z,49.99
2022-10-22T06:16:48.404Z,47.65
2022-10-22T06:19:18.505Z,47.27
2022-10-22T06:21:47.574Z,46.17
2022-10-22T06:24:19.705Z,46.15
2022-10-22T06:26:52.749Z,45.53
2022-10-22T06:29:20.440Z,45.82
2022-10-22T06:31:48.030Z,45.74
2022-10-22T06:34:18.966Z,45.15
2022-10-22T06:36:47.132Z,43.68
2022-10-22T06:39:17.559Z,42.48
2022-10-22T06:41:45.269Z,43.40
2022-10-22T06:44:18.223Z,43.12
2022-10-22T06:46:46.029Z,41.47
2022-10-22T06:49:15.215Z,40.41
2022-10-22T06:51:42.693Z,39.21
2022-10-22T06:54:10.891Z,38.10
2022-10-22T06:56:38.229Z,37.79
2022-10-22T06:59:05.755Z,37.79
2022-10-22T07:01:35.375Z,37.81
2022-10-22T07:04:04.328Z,38.27
2022-10-22T07:06:31.626Z,39.01
2022-10-22T07:09:00.075Z,39.64
2022-10-22T07:11:30.268Z,39.70
2022-10-22T07:13:59.601Z,39.08
2022-10-22T07:16:31.120Z,40.26
2022-10-22T07:19:04.753Z,39.49
2022-10-22T07:21:32.315Z,39.15
2022-10-22T07:24:00.410Z,38.70
2022-10-22T07:26:30.964Z,37.45
2022-10-22T07:29:02.490Z,36.88
2022-10-22T07:31:30.030Z,35.88
2022-10-22T07:33:58.435Z,34.45
2022-10-22T07:36:25.741Z,36.06
2022-10-22T07:38:58.252Z,34.76
2022-10-22T07:41:27.530Z,35.50
2022-10-22T07:43:56.057Z,34.79
2022-10-22T07:46:24.138Z,34.57
2022-10-22T07:48:51.992Z,35.19
2022-10-22T07:51:19.254Z,34.96
2022-10-22T07:53:46.808Z,36.14
2022-10-22T07:56:14.184Z,37.08
2022-10-22T07:58:41.710Z,36.57
2022-10-22T08:01:09.047Z,36.54
2022-10-22T08:03:36.897Z,36.99
2022-10-22T08:06:04.357Z,38.09
2022-10-22T08:08:32.424Z,39.40
2022-10-22T08:11:00.906Z,39.24
2022-10-22T08:13:30.774Z,40.38
2022-10-22T08:16:01.824Z,40.38
2022-10-22T08:18:29.808Z,39.74
2022-10-22T08:20:57.561Z,40.99
2022-10-22T08:23:26.206Z,42.95
2022-10-22T08:25:57.043Z,44.55
2022-10-22T08:28:24.908Z,42.25
2022-10-22T08:30:52.185Z,41.89
2022-10-22T08:33:19.800Z,42.87
2022-10-22T08:35:51.805Z,43.98
2022-10-22T08:38:19.907Z,45.38
2022-10-22T08:41:06.334Z,45.94
2022-10-22T08:43:42.104Z,47.37
2022-10-22T08:46:42.910Z,48.48
2022-10-22T08:49:20.669Z,48.71
2022-10-22T08:51:48.161Z,48.90
2022-10-22T08:54:44.658Z,49.45
2022-10-22T08:57:39.460Z,48.90
2022-10-22T09:00:15.084Z,48.24
2022-10-22T09:02:48.677Z,45.08
2022-10-22T09:05:54.196Z,43.43
2022-10-22T09:08:22.119Z,41.07
2022-10-22T09:10:56.028Z,41.75
2022-10-22T09:13:24.236Z,42.25
2022-10-22T09:15:56.313Z,43.07
2022-10-22T09:18:30.018Z,43.29
2022-10-22T09:21:04.279Z,41.87
2022-10-22T09:23:39.971Z,41.55
2022-10-22T09:26:15.735Z,42.05
2022-10-22T09:28:44.115Z,40.87
2022-10-22T09:31:13.779Z,41.42
2022-10-22T09:33:42.985Z,39.94
2022-10-22T09:36:18.712Z,40.78
2022-10-22T09:38:52.503Z,40.94
2022-10-22T09:41:26.304Z,41.06
2022-10-22T09:43:57.042Z,43.22
2022-10-22T09:46:31.667Z,43.95
2022-10-22T09:49:11.086Z,44.51
2022-10-22T09:51:51.995Z,44.23
2022-10-22T09:54:24.424Z,43.75
2022-10-22T09:56:57.804Z,43.00
2022-10-22T09:59:29.132Z,42.77
2022-10-22T10:02:08.511Z,43.14
2022-10-22T10:04:53.043Z,43.89
2022-10-22T10:07:23.647Z,44.41
2022-10-22T10:09:52.474Z,44.38
2022-10-22T10:13:05.544Z,45.92
2022-10-22T10:15:55.733Z,46.81
2022-10-22T10:19:19.725Z,47.75
2022-10-22T10:22:12.297Z,49.37
2022-10-22T10:24:48.358Z,49.24
2022-10-22T10:27:20.939Z,49.95
2022-10-22T10:30:16.074Z,50.53
2022-10-22T10:33:01.758Z,50.44
2022-10-22T10:35:37.118Z,50.71
2022-10-22T10:38:40.583Z,50.26
2022-10-22T10:41:17.977Z,50.38
2022-10-22T10:43:51.857Z,50.57
2022-10-22T10:46:48.720Z,50.90
2022-10-22T10:49:33.198Z,51.22
2022-10-22T10:52:17.407Z,51.15
2022-10-22T10:55:23.117Z,51.71
2022-10-22T10:58:40.186Z,51.44
2022-10-22T11:01:42.094Z,52.20
2022-10-22T11:04:47.215Z,51.46
2022-10-22T11:07:34.325Z,51.64
2022-10-22T11:10:32.534Z,52.28
2022-10-22T11:13:08.995Z,53.32
2022-10-22T11:15:39.416Z,52.56
2022-10-22T11:18:18.493Z,52.18
2022-10-22T11:21:17.657Z,51.67
2022-10-22T11:23:46.899Z,51.30
2022-10-22T11:26:46.470Z,51.33
2022-10-22T11:29:23.026Z,51.12
2022-10-22T11:31:53.416Z,50.90
2022-10-22T11:34:44.694Z,51.68
2022-10-22T11:37:14.612Z,52.68
2022-10-22T11:39:51.392Z,51.39
2022-10-22T11:42:30.342Z,48.30
2022-10-22T11:45:29.551Z,48.69
2022-10-22T11:47:57.108Z,48.20
2022-10-22T11:50:47.100Z,48.04
2022-10-22T11:53:14.556Z,47.96
2022-10-22T11:55:55.610Z,46.11
2022-10-22T11:58:38.418Z,45.89
2022-10-22T12:01:08.391Z,46.58
2022-10-22T12:03:38.017Z,45.55
2022-10-22T12:06:05.267Z,45.73
2022-10-22T12:08:34.255Z,44.70
2022-10-22T12:11:41.760Z,44.79
2022-10-22T12:14:28.178Z,45.73
2022-10-22T12:17:14.289Z,45.95
2022-10-22T12:19:45.168Z,47.22
2022-10-22T12:22:31.989Z,46.27
2022-10-22T12:25:10.770Z,47.04
2022-10-22T12:27:42.016Z,47.21
2022-10-22T12:30:37.026Z,46.86
2022-10-22T12:33:28.425Z,46.94
2022-10-22T12:36:07.770Z,47.75
2022-10-22T12:38:49.945Z,47.47
2022-10-22T12:41:18.719Z,47.16
2022-10-22T12:43:46.267Z,45.97
2022-10-22T12:46:16.503Z,45.29
2022-10-22T12:48:45.927Z,45.60
2022-10-22T12:51:18.340Z,45.31
2022-10-22T12:53:53.412Z,46.58
2022-10-22T12:56:32.415Z,46.30
2022-10-22T12:59:39.409Z,46.61
2022-10-22T13:02:31.333Z,47.20
2022-10-22T13:05:31.432Z,46.75
2022-10-22T13:10:55.026Z,46.22
2022-10-22T13:13:35.954Z,46.60
2022-10-22T13:16:14.410Z,46.04
2022-10-22T13:18:42.841Z,46.23
2022-10-22T13:21:24.298Z,46.00
2022-10-22T13:24:00.252Z,47.34
2022-10-22T13:26:33.677Z,47.40
2022-10-22T13:29:02.990Z,47.04
2022-10-22T13:31:33.651Z,47.29
2022-10-22T13:34:09.826Z,48.14
2022-10-22T13:36:39.453Z,47.53
2022-10-22T13:39:09.001Z,48.12
2022-10-22T13:44:08.368Z,49.57
2022-10-22T13:46:44.845Z,46.92
2022-10-22T13:49:23.524Z,47.81
2022-10-22T13:51:51.940Z,50.59
2022-10-22T13:54:24.595Z,47.00
2022-10-22T13:56:53.742Z,48.36
2022-10-22T13:59:22.993Z,48.45
2022-10-22T14:01:52.766Z,48.97
2022-10-22T14:04:20.396Z,49.35
2022-10-22T14:06:47.962Z,49.10
2022-10-22T14:09:20.706Z,49.53
2022-10-22T14:11:53.423Z,49.70
2022-10-22T14:14:41.339Z,50.85
2022-10-22T14:17:22.291Z,50.24
2022-10-22T14:20:46.295Z,50.89
2022-10-22T14:23:24.722Z,48.63
2022-10-22T14:25:52.443Z,48.63
2022-10-22T14:28:20.355Z,48.53
2022-10-22T14:30:48.239Z,47.74
2022-10-22T14:33:28.952Z,48.18
2022-10-22T14:36:00.642Z,47.83
2022-10-22T14:38:29.209Z,47.07
2022-10-22T14:41:05.639Z,47.95
2022-10-22T14:44:29.264Z,48.83
2022-10-22T14:47:36.229Z,51.07
2022-10-22T14:54:03.225Z,52.36
2022-10-22T14:56:30.633Z,53.86
2022-10-22T14:58:58.180Z,53.48
2022-10-22T15:01:25.530Z,52.10
2022-10-22T15:03:55.466Z,51.81
2022-10-22T15:06:32.650Z,52.34
2022-10-22T15:09:03.565Z,52.86
2022-10-22T15:11:35.997Z,52.57
2022-10-22T15:14:05.264Z,53.03
2022-10-22T15:16:32.492Z,57.51
2022-10-22T15:19:00.998Z,55.08
2022-10-22T15:21:28.692Z,54.76
2022-10-22T15:23:56.426Z,54.61
2022-10-22T15:26:26.012Z,55.00
2022-10-22T15:29:29.112Z,54.94
2022-10-22T15:35:54.556Z,62.15
2022-10-22T15:38:39.008Z,63.79
2022-10-22T15:41:10.397Z,64.52
2022-10-22T15:43:38.387Z,63.57
2022-10-22T15:46:11.969Z,65.10
2022-10-22T15:48:39.959Z,63.64
2022-10-22T15:51:15.516Z,65.57
2022-10-22T15:53:43.494Z,69.88
2022-10-22T15:56:12.152Z,70.49
2022-10-22T15:58:40.067Z,70.20
2022-10-22T16:01:11.265Z,69.75
2022-10-22T16:03:39.423Z,67.23
2022-10-22T16:06:09.233Z,72.48
2022-10-22T16:08:38.357Z,75.56
2022-10-22T16:11:08.727Z,76.11
2022-10-22T16:13:37.441Z,74.05
2022-10-22T16:16:07.120Z,74.25
2022-10-22T16:18:34.602Z,73.60
2022-10-22T16:21:01.932Z,72.78
2022-10-22T16:23:29.840Z,73.22
2022-10-22T16:26:15.368Z,70.61
2022-10-22T16:28:59.272Z,68.14
2022-10-22T16:31:35.403Z,70.94
2022-10-22T16:34:18.526Z,76.59
2022-10-22T16:37:39.329Z,76.38
2022-10-22T16:40:58.060Z,78.31
2022-10-22T16:44:50.180Z,75.88
2022-10-22T16:48:00.206Z,71.08
2022-10-22T16:50:41.744Z,68.53
2022-10-22T16:56:11.830Z,67.24
2022-10-22T16:58:43.701Z,69.13
2022-10-22T17:01:13.387Z,73.54
2022-10-22T17:03:42.618Z,76.49
2022-10-22T17:06:11.946Z,77.02
2022-10-22T17:08:41.156Z,75.79
2022-10-22T17:11:13.595Z,75.38
2022-10-22T17:13:42.015Z,76.20
2022-10-22T17:16:12.630Z,74.92
2022-10-22T17:18:41.388Z,74.01
2022-10-22T17:21:10.918Z,74.44
2022-10-22T17:23:40.123Z,74.25
2022-10-22T17:26:44.530Z,70.92
2022-10-22T17:29:52.815Z,70.04
2022-10-22T17:32:57.292Z,69.20
2022-10-22T17:36:33.213Z,71.93
2022-10-22T17:39:39.937Z,72.96
2022-10-22T17:42:09.220Z,72.81
2022-10-22T17:44:37.698Z,73.95
2022-10-22T17:47:06.300Z,73.75
2022-10-22T17:49:33.587Z,75.29
2022-10-22T17:54:33.963Z,74.35
2022-10-22T17:57:11.094Z,76.26
2022-10-22T17:59:41.372Z,77.08
2022-10-22T18:02:17.386Z,78.85
2022-10-22T18:05:11.913Z,79.83
2022-10-22T18:07:49.580Z,79.01
2022-10-22T18:10:24.982Z,78.57
2022-10-22T18:12:55.650Z,75.98
2022-10-22T18:15:58.606Z,73.12
2022-10-22T18:19:04.690Z,74.59
2022-10-22T18:22:04.905Z,74.40
2022-10-22T18:24:36.818Z,72.83
2022-10-22T18:27:04.249Z,77.65
2022-10-22T18:29:31.855Z,80.83
2022-10-22T18:32:00.152Z,80.45
2022-10-22T18:34:31.172Z,76.77
2022-10-22T18:36:58.690Z,77.35
2022-10-22T18:39:26.254Z,76.80
2022-10-22T18:41:55.491Z,77.33
2022-10-22T18:45:29.449Z,74.87
2022-10-22T18:49:03.236Z,73.65
2022-10-22T18:51:32.941Z,74.08
2022-10-22T18:54:32.655Z,71.76
2022-10-22T18:57:02.875Z,72.01
2022-10-22T18:59:31.745Z,72.26
2022-10-22T19:01:59.806Z,72.35
2022-10-22T19:04:34.246Z,72.04
2022-10-22T19:07:01.976Z,73.13
2022-10-22T19:09:29.265Z,72.17
2022-10-22T19:11:56.916Z,72.44
2022-10-22T19:14:24.233Z,74.47
2022-10-22T19:16:52.037Z,76.46
2022-10-22T19:19:22.479Z,77.59
2022-10-22T19:21:51.330Z,78.10
2022-10-22T19:24:20.379Z,77.54
2022-10-22T19:26:59.692Z,78.30
2022-10-22T19:29:32.296Z,78.51
2022-10-22T19:32:59.327Z,79.77
2022-10-22T19:37:06.946Z,81.59
2022-10-22T19:42:56.745Z,81.30
2022-10-22T19:45:26.574Z,78.36
2022-10-22T19:47:54.843Z,78.66
2022-10-22T19:50:22.827Z,78.43
2022-10-22T19:52:51.343Z,79.42
2022-10-22T19:55:18.969Z,79.87
2022-10-22T19:57:53.716Z,80.59
2022-10-22T20:01:39.541Z,81.35
2022-10-22T20:04:15.274Z,82.61
2022-10-22T20:06:45.614Z,81.60
2022-10-22T20:09:26.373Z,82.78
2022-10-22T20:11:54.032Z,83.49
2022-10-22T20:14:21.689Z,84.44
2022-10-22T20:16:49.176Z,84.65
2022-10-22T20:19:17.412Z,85.86
2022-10-22T20:21:46.066Z,86.05
2022-10-22T20:24:14.453Z,87.44
2022-10-22T20:26:44.952Z,88.74
2022-10-22T20:29:26.383Z,90.11
2022-10-22T20:32:28.374Z,91.17
2022-10-22T20:35:22.814Z,91.78
2022-10-22T20:37:54.255Z,93.29
2022-10-22T20:40:34.072Z,94.65
2022-10-22T20:43:04.673Z,94.87
2022-10-22T20:46:03.971Z,96.47
2022-10-22T20:48:38.684Z,98.95
2022-10-22T20:51:10.289Z,100.00
2022-10-22T20:53:40.910Z,100.00
2022-10-22T20:56:15.432Z,100.00
2022-10-22T20:58:48.084Z,100.00
2022-10-22T21:01:23.985Z,100.00
2022-10-22T21:03:53.007Z,100.00
2022-10-22T21:06:23.332Z,100.00
2022-10-22T21:08:52.251Z,100.00
2022-10-22T21:11:20.939Z,100.00
2022-10-22T21:13:48.732Z,100.00
2022-10-22T21:16:18.764Z,100.00
2022-10-22T21:18:49.558Z,100.00
2022-10-22T21:21:17.802Z,100.00
2022-10-22T21:23:45.625Z,100.00
2022-10-22T21:26:13.087Z,100.00
2022-10-22T21:28:42.070Z,100.00
2022-10-22T21:31:21.128Z,100.00
2022-10-22T21:34:17.850Z,100.00
2022-10-22T21:36:53.398Z,100.00
2022-10-22T21:39:26.536Z,100.00
2022-10-22T21:41:57.494Z,100.00
2022-10-22T21:44:25.222Z,100.00
2022-10-22T21:46:52.508Z,100.00
2022-10-22T21:49:20.042Z,100.00
2022-10-22T21:51:47.306Z,100.00
2022-10-22T21:54:14.881Z,100.00
2022-10-22T21:56:43.804Z,100.00
2022-10-22T21:59:11.352Z,100.00
2022-10-22T22:01:39.024Z,100.00
2022-10-22T22:04:18.624Z,100.00
2022-10-22T22:06:46.101Z,100.00
2022-10-22T22:09:21.032Z,100.00
2022-10-22T22:11:51.830Z,100.00
2022-10-22T22:14:21.064Z,100.00
2022-10-22T22:16:48.313Z,100.00
2022-10-22T22:19:15.819Z,100.00
2022-10-22T22:21:43.131Z,100.00
2022-10-22T22:24:12.968Z,100.00
2022-10-22T22:26:41.026Z,100.00
2022-10-22T22:29:15.319Z,100.00
2022-10-22T22:32:49.148Z,100.00
2022-10-22T22:35:32.177Z,100.00
2022-10-22T22:38:03.441Z,100.00
2022-10-22T22:40:39.210Z,100.00
2022-10-22T22:43:11.644Z,100.00
2022-10-22T22:45:40.894Z,100.00
2022-10-22T22:48:08.282Z,100.00
2022-10-22T22:50:36.774Z,100.00
2022-10-22T22:53:04.013Z,100.00
2022-10-22T22:55:32.091Z,100.00
2022-10-22T22:57:59.409Z,100.00
2022-10-22T23:00:27.174Z,100.00
2022-10-22T23:02:55.920Z,100.00
2022-10-22T23:05:23.400Z,100.00
2022-10-22T23:07:50.633Z,100.00
2022-10-22T23:10:18.060Z,100.00
2022-10-22T23:12:45.494Z,100.00
2022-10-22T23:15:12.991Z,100.00
2022-10-22T23:17:40.256Z,100.00
2022-10-22T23:20:08.961Z,100.00
2022-10-22T23:22:36.542Z,100.00
2022-10-22T23:25:04.193Z,100.00
2022-10-22T23:27:31.415Z,100.00
2022-10-22T23:29:58.863Z,100.00
2022-10-22T23:32:26.140Z,100.00
2022-10-22T23:34:53.640Z,100.00
2022-10-22T23:37:20.973Z,100.00
2022-10-22T23:39:48.526Z,100.00
2022-10-22T23:42:15.767Z,100.00
2022-10-22T23:44:43.565Z,100.00
2022-10-22T23:47:11.011Z,100.00
2022-10-22T23:49:38.446Z,100.00
2022-10-22T23:52:05.690Z,100.00
2022-10-22T23:54:34.417Z,100.00
2022-10-22T23:57:01.665Z,100.00
2022-10-22T23:59:29.122Z,100.00
